sensor_id;sensor_type;location;lat;lon;timestamp;pressure;altitude;pressure_sealevel;temperature;humidity
57000;BME280;42891;50.006;21.964;2023-01-08T00:02:49;99288.97;;;3.58;84.50
57000;BME280;42891;50.006;21.964;2023-01-08T00:06:50;99287.22;;;3.58;84.94
57000;BME280;42891;50.006;21.964;2023-01-08T00:10:54;99277.44;;;3.46;84.27
57000;BME280;42891;50.006;21.964;2023-01-08T00:14:54;99267.50;;;3.53;84.34
57000;BME280;42891;50.006;21.964;2023-01-08T00:18:55;99270.84;;;3.55;84.08
57000;BME280;42891;50.006;21.964;2023-01-08T00:22:55;99258.38;;;3.44;84.27
57000;BME280;42891;50.006;21.964;2023-01-08T00:26:55;99271.03;;;3.52;85.06
57000;BME280;42891;50.006;21.964;2023-01-08T00:30:56;99266.56;;;3.54;84.73
57000;BME280;42891;50.006;21.964;2023-01-08T00:34:56;99268.06;;;3.58;84.32
57000;BME280;42891;50.006;21.964;2023-01-08T00:38:57;99256.56;;;3.46;84.31
57000;BME280;42891;50.006;21.964;2023-01-08T00:42:58;99243.59;;;3.45;84.20
57000;BME280;42891;50.006;21.964;2023-01-08T00:46:58;99265.03;;;3.50;84.27
57000;BME280;42891;50.006;21.964;2023-01-08T00:51:00;99259.59;;;3.54;84.83
57000;BME280;42891;50.006;21.964;2023-01-08T00:55:00;99258.72;;;3.54;84.57
57000;BME280;42891;50.006;21.964;2023-01-08T00:59:01;99257.63;;;3.58;84.91
57000;BME280;42891;50.006;21.964;2023-01-08T01:03:01;99250.81;;;3.55;84.97
57000;BME280;42891;50.006;21.964;2023-01-08T01:07:02;99236.72;;;3.58;85.08
57000;BME280;42891;50.006;21.964;2023-01-08T01:11:07;99230.94;;;3.53;84.70
57000;BME280;42891;50.006;21.964;2023-01-08T01:15:10;99239.84;;;3.65;84.73
57000;BME280;42891;50.006;21.964;2023-01-08T01:19:11;99231.19;;;3.64;84.65
57000;BME280;42891;50.006;21.964;2023-01-08T01:23:11;99220.31;;;3.56;84.51
57000;BME280;42891;50.006;21.964;2023-01-08T01:27:11;99232.78;;;3.67;84.57
57000;BME280;42891;50.006;21.964;2023-01-08T01:31:11;99211.31;;;3.62;84.69
57000;BME280;42891;50.006;21.964;2023-01-08T01:35:14;99223.09;;;3.69;84.50
57000;BME280;42891;50.006;21.964;2023-01-08T01:39:15;99217.22;;;3.65;84.38
57000;BME280;42891;50.006;21.964;2023-01-08T01:43:30;99210.69;;;3.72;84.90
57000;BME280;42891;50.006;21.964;2023-01-08T01:47:32;99208.28;;;3.69;85.42
57000;BME280;42891;50.006;21.964;2023-01-08T01:51:34;99205.72;;;3.68;85.39
57000;BME280;42891;50.006;21.964;2023-01-08T01:55:37;99195.47;;;3.65;85.43
57000;BME280;42891;50.006;21.964;2023-01-08T01:59:38;99196.97;;;3.69;85.77
57000;BME280;42891;50.006;21.964;2023-01-08T02:03:39;99184.50;;;3.58;86.03
57000;BME280;42891;50.006;21.964;2023-01-08T02:07:58;99184.38;;;3.61;85.93
57000;BME280;42891;50.006;21.964;2023-01-08T02:12:14;99189.31;;;3.66;85.37
57000;BME280;42891;50.006;21.964;2023-01-08T02:16:52;99185.28;;;3.60;85.08
57000;BME280;42891;50.006;21.964;2023-01-08T02:21:00;99170.34;;;3.62;84.21
57000;BME280;42891;50.006;21.964;2023-01-08T02:29:17;99159.78;;;3.49;83.54
57000;BME280;42891;50.006;21.964;2023-01-08T02:33:18;99158.13;;;3.32;83.72
57000;BME280;42891;50.006;21.964;2023-01-08T02:37:19;99154.41;;;3.36;83.63
57000;BME280;42891;50.006;21.964;2023-01-08T02:41:23;99151.47;;;3.27;83.98
57000;BME280;42891;50.006;21.964;2023-01-08T02:45:46;99155.84;;;3.26;84.29
57000;BME280;42891;50.006;21.964;2023-01-08T02:49:53;99160.66;;;3.34;83.92
57000;BME280;42891;50.006;21.964;2023-01-08T02:53:58;99152.53;;;3.38;84.08
57000;BME280;42891;50.006;21.964;2023-01-08T02:58:01;99149.28;;;3.35;84.28
57000;BME280;42891;50.006;21.964;2023-01-08T03:02:02;99142.56;;;3.31;83.90
57000;BME280;42891;50.006;21.964;2023-01-08T03:06:08;99146.41;;;3.39;83.87
57000;BME280;42891;50.006;21.964;2023-01-08T03:10:09;99146.06;;;3.46;83.88
57000;BME280;42891;50.006;21.964;2023-01-08T03:14:29;99133.09;;;3.44;84.17
57000;BME280;42891;50.006;21.964;2023-01-08T03:18:40;99137.38;;;3.45;84.21
57000;BME280;42891;50.006;21.964;2023-01-08T03:22:46;99134.50;;;3.50;84.09
57000;BME280;42891;50.006;21.964;2023-01-08T03:26:49;99106.97;;;3.44;83.98
57000;BME280;42891;50.006;21.964;2023-01-08T03:30:52;99112.06;;;3.47;83.86
57000;BME280;42891;50.006;21.964;2023-01-08T03:34:54;99123.91;;;3.53;84.25
57000;BME280;42891;50.006;21.964;2023-01-08T03:39:03;99108.25;;;3.53;84.23
57000;BME280;42891;50.006;21.964;2023-01-08T03:43:06;99114.00;;;3.58;83.82
57000;BME280;42891;50.006;21.964;2023-01-08T03:47:09;99119.34;;;3.56;83.81
57000;BME280;42891;50.006;21.964;2023-01-08T03:51:10;99090.41;;;3.45;83.36
57000;BME280;42891;50.006;21.964;2023-01-08T03:55:10;99100.56;;;3.50;83.63
57000;BME280;42891;50.006;21.964;2023-01-08T03:59:11;99099.34;;;3.41;83.52
57000;BME280;42891;50.006;21.964;2023-01-08T04:03:12;99096.53;;;3.44;83.40
57000;BME280;42891;50.006;21.964;2023-01-08T04:07:13;99097.94;;;3.50;83.47
57000;BME280;42891;50.006;21.964;2023-01-08T04:11:13;99095.53;;;3.47;82.95
57000;BME280;42891;50.006;21.964;2023-01-08T04:15:13;99090.31;;;3.47;83.29
57000;BME280;42891;50.006;21.964;2023-01-08T04:19:14;99067.06;;;3.28;83.45
57000;BME280;42891;50.006;21.964;2023-01-08T04:23:14;99080.66;;;3.33;83.46
57000;BME280;42891;50.006;21.964;2023-01-08T04:27:15;99069.16;;;3.21;84.12
57000;BME280;42891;50.006;21.964;2023-01-08T04:31:15;99077.13;;;3.34;83.79
57000;BME280;42891;50.006;21.964;2023-01-08T04:35:16;99080.47;;;3.36;83.87
57000;BME280;42891;50.006;21.964;2023-01-08T04:39:16;99073.00;;;3.30;84.57
57000;BME280;42891;50.006;21.964;2023-01-08T04:43:16;99055.16;;;3.38;84.50
57000;BME280;42891;50.006;21.964;2023-01-08T04:47:17;99073.03;;;3.44;84.39
57000;BME280;42891;50.006;21.964;2023-01-08T04:51:17;99067.91;;;3.42;84.61
57000;BME280;42891;50.006;21.964;2023-01-08T04:55:18;99064.78;;;3.52;84.55
57000;BME280;42891;50.006;21.964;2023-01-08T04:59:18;99077.56;;;3.56;84.79
57000;BME280;42891;50.006;21.964;2023-01-08T05:03:19;99074.94;;;3.56;84.74
57000;BME280;42891;50.006;21.964;2023-01-08T05:07:19;99068.78;;;3.43;84.04
57000;BME280;42891;50.006;21.964;2023-01-08T05:11:19;99072.81;;;3.49;84.58
57000;BME280;42891;50.006;21.964;2023-01-08T05:15:20;99069.81;;;3.55;84.86
57000;BME280;42891;50.006;21.964;2023-01-08T05:19:20;99069.19;;;3.51;85.56
57000;BME280;42891;50.006;21.964;2023-01-08T05:23:20;99070.09;;;3.50;85.86
57000;BME280;42891;50.006;21.964;2023-01-08T05:27:21;99067.22;;;3.55;85.66
57000;BME280;42891;50.006;21.964;2023-01-08T05:31:21;99067.31;;;3.53;85.55
57000;BME280;42891;50.006;21.964;2023-01-08T05:40:11;99066.38;;;3.54;85.61
57000;BME280;42891;50.006;21.964;2023-01-08T05:44:12;99063.00;;;3.52;85.80
57000;BME280;42891;50.006;21.964;2023-01-08T05:48:12;99063.50;;;3.59;85.91
57000;BME280;42891;50.006;21.964;2023-01-08T05:52:12;99058.44;;;3.56;85.26
57000;BME280;42891;50.006;21.964;2023-01-08T05:56:12;99059.75;;;3.63;85.37
57000;BME280;42891;50.006;21.964;2023-01-08T06:00:13;99053.16;;;3.72;85.42
57000;BME280;42891;50.006;21.964;2023-01-08T06:04:14;99048.78;;;3.72;85.17
57000;BME280;42891;50.006;21.964;2023-01-08T06:08:15;99040.03;;;3.73;85.44
57000;BME280;42891;50.006;21.964;2023-01-08T06:12:15;99034.81;;;3.73;85.42
57000;BME280;42891;50.006;21.964;2023-01-08T06:16:15;99031.53;;;3.70;85.46
57000;BME280;42891;50.006;21.964;2023-01-08T06:20:16;99029.84;;;3.69;85.11
57000;BME280;42891;50.006;21.964;2023-01-08T06:24:16;99049.16;;;3.81;84.83
57000;BME280;42891;50.006;21.964;2023-01-08T06:28:17;99035.44;;;3.77;84.92
57000;BME280;42891;50.006;21.964;2023-01-08T06:32:17;99047.09;;;3.86;85.39
57000;BME280;42891;50.006;21.964;2023-01-08T06:36:17;99034.22;;;3.83;84.82
57000;BME280;42891;50.006;21.964;2023-01-08T06:40:18;99051.06;;;3.93;84.93
57000;BME280;42891;50.006;21.964;2023-01-08T06:44:18;99054.38;;;3.95;84.63
57000;BME280;42891;50.006;21.964;2023-01-08T06:48:19;99033.94;;;3.73;84.70
57000;BME280;42891;50.006;21.964;2023-01-08T06:52:19;99055.41;;;3.92;84.33
57000;BME280;42891;50.006;21.964;2023-01-08T06:56:19;99046.94;;;3.89;84.27
57000;BME280;42891;50.006;21.964;2023-01-08T07:00:20;99054.19;;;3.84;83.78
57000;BME280;42891;50.006;21.964;2023-01-08T07:04:22;99054.00;;;3.87;83.69
57000;BME280;42891;50.006;21.964;2023-01-08T07:08:22;99056.00;;;3.83;84.27
57000;BME280;42891;50.006;21.964;2023-01-08T07:12:23;99040.19;;;3.70;84.04
57000;BME280;42891;50.006;21.964;2023-01-08T07:16:24;99042.25;;;3.80;84.42
57000;BME280;42891;50.006;21.964;2023-01-08T07:20:24;99059.47;;;3.68;83.98
57000;BME280;42891;50.006;21.964;2023-01-08T07:24:24;99052.84;;;3.62;84.18
57000;BME280;42891;50.006;21.964;2023-01-08T07:28:25;99052.50;;;3.68;84.26
57000;BME280;42891;50.006;21.964;2023-01-08T07:32:25;99046.53;;;3.66;84.31
57000;BME280;42891;50.006;21.964;2023-01-08T07:36:25;99029.16;;;3.51;84.48
57000;BME280;42891;50.006;21.964;2023-01-08T07:40:25;99049.13;;;3.66;84.29
57000;BME280;42891;50.006;21.964;2023-01-08T07:44:26;99043.91;;;3.66;84.63
57000;BME280;42891;50.006;21.964;2023-01-08T07:48:26;99033.22;;;3.71;84.99
57000;BME280;42891;50.006;21.964;2023-01-08T07:52:26;99034.03;;;3.86;85.31
57000;BME280;42891;50.006;21.964;2023-01-08T07:56:27;99024.63;;;3.83;84.79
57000;BME280;42891;50.006;21.964;2023-01-08T08:00:27;99028.16;;;3.97;85.40
57000;BME280;42891;50.006;21.964;2023-01-08T08:04:28;98983.41;;;3.74;84.90
57000;BME280;42891;50.006;21.964;2023-01-08T08:08:28;99018.00;;;3.92;85.02
57000;BME280;42891;50.006;21.964;2023-01-08T08:12:29;99019.31;;;3.99;85.17
57000;BME280;42891;50.006;21.964;2023-01-08T08:16:29;99011.13;;;4.05;85.40
57000;BME280;42891;50.006;21.964;2023-01-08T08:20:29;98998.88;;;4.06;85.99
57000;BME280;42891;50.006;21.964;2023-01-08T08:24:29;98999.25;;;4.14;85.46
57000;BME280;42891;50.006;21.964;2023-01-08T08:28:30;98985.75;;;3.93;85.66
57000;BME280;42891;50.006;21.964;2023-01-08T08:32:30;98996.53;;;4.16;85.49
57000;BME280;42891;50.006;21.964;2023-01-08T08:36:30;98997.19;;;4.19;86.13
57000;BME280;42891;50.006;21.964;2023-01-08T08:40:31;98972.81;;;4.19;86.24
57000;BME280;42891;50.006;21.964;2023-01-08T08:44:31;98975.88;;;4.25;86.54
57000;BME280;42891;50.006;21.964;2023-01-08T08:48:31;98966.66;;;4.20;86.26
57000;BME280;42891;50.006;21.964;2023-01-08T08:52:33;98975.13;;;4.38;86.02
57000;BME280;42891;50.006;21.964;2023-01-08T08:56:33;98963.06;;;4.35;86.51
57000;BME280;42891;50.006;21.964;2023-01-08T09:00:33;98971.81;;;4.49;86.22
57000;BME280;42891;50.006;21.964;2023-01-08T09:04:33;98963.03;;;4.50;86.66
57000;BME280;42891;50.006;21.964;2023-01-08T09:13:31;98950.84;;;4.63;86.08
57000;BME280;42891;50.006;21.964;2023-01-08T09:17:31;98951.19;;;4.71;86.67
57000;BME280;42891;50.006;21.964;2023-01-08T09:21:32;98957.56;;;4.67;84.91
57000;BME280;42891;50.006;21.964;2023-01-08T09:25:33;98943.25;;;4.73;85.64
57000;BME280;42891;50.006;21.964;2023-01-08T09:29:33;98932.16;;;4.69;85.71
57000;BME280;42891;50.006;21.964;2023-01-08T09:33:33;98909.22;;;4.73;85.92
57000;BME280;42891;50.006;21.964;2023-01-08T09:37:34;98918.44;;;4.78;85.28
57000;BME280;42891;50.006;21.964;2023-01-08T09:41:40;98905.25;;;4.80;86.80
57000;BME280;42891;50.006;21.964;2023-01-08T09:45:42;98881.31;;;4.73;86.60
57000;BME280;42891;50.006;21.964;2023-01-08T09:49:45;98903.94;;;4.87;87.32
57000;BME280;42891;50.006;21.964;2023-01-08T09:53:55;98878.59;;;4.88;86.42
57000;BME280;42891;50.006;21.964;2023-01-08T09:57:58;98888.34;;;4.99;87.08
57000;BME280;42891;50.006;21.964;2023-01-08T10:01:58;98884.50;;;5.04;86.90
57000;BME280;42891;50.006;21.964;2023-01-08T10:05:59;98863.84;;;5.00;86.97
57000;BME280;42891;50.006;21.964;2023-01-08T10:09:59;98856.75;;;5.15;86.91
57000;BME280;42891;50.006;21.964;2023-01-08T10:13:59;98852.84;;;5.20;87.11
57000;BME280;42891;50.006;21.964;2023-01-08T10:18:05;98839.78;;;5.20;87.30
57000;BME280;42891;50.006;21.964;2023-01-08T10:22:15;98847.00;;;5.29;86.53
57000;BME280;42891;50.006;21.964;2023-01-08T10:26:34;98834.97;;;5.27;87.17
57000;BME280;42891;50.006;21.964;2023-01-08T10:30:37;98825.53;;;5.24;87.20
57000;BME280;42891;50.006;21.964;2023-01-08T10:34:45;98823.22;;;5.33;86.92
57000;BME280;42891;50.006;21.964;2023-01-08T10:42:53;98813.38;;;5.36;86.87
57000;BME280;42891;50.006;21.964;2023-01-08T10:46:57;98806.56;;;5.34;86.77
57000;BME280;42891;50.006;21.964;2023-01-08T10:51:14;98805.75;;;5.33;87.17
57000;BME280;42891;50.006;21.964;2023-01-08T10:55:29;98808.38;;;5.33;86.81
57000;BME280;42891;50.006;21.964;2023-01-08T10:59:30;98810.22;;;5.44;87.01
57000;BME280;42891;50.006;21.964;2023-01-08T11:03:31;98798.69;;;5.46;87.00
57000;BME280;42891;50.006;21.964;2023-01-08T11:07:32;98809.03;;;5.48;87.17
57000;BME280;42891;50.006;21.964;2023-01-08T11:11:36;98801.94;;;5.50;87.33
57000;BME280;42891;50.006;21.964;2023-01-08T11:15:39;98789.66;;;5.51;87.53
57000;BME280;42891;50.006;21.964;2023-01-08T11:19:40;98791.22;;;5.53;87.29
57000;BME280;42891;50.006;21.964;2023-01-08T11:23:41;98763.94;;;5.44;87.60
57000;BME280;42891;50.006;21.964;2023-01-08T11:27:43;98757.00;;;5.43;87.36
57000;BME280;42891;50.006;21.964;2023-01-08T11:36:31;98748.06;;;5.59;87.68
57000;BME280;42891;50.006;21.964;2023-01-08T11:45:24;98755.03;;;5.71;88.14
57000;BME280;42891;50.006;21.964;2023-01-08T11:50:40;98744.66;;;5.70;88.17
57000;BME280;42891;50.006;21.964;2023-01-08T11:58:55;98719.88;;;5.62;88.36
57000;BME280;42891;50.006;21.964;2023-01-08T12:03:25;98713.78;;;5.62;88.52
57000;BME280;42891;50.006;21.964;2023-01-08T12:12:15;98680.47;;;5.64;88.79
57000;BME280;42891;50.006;21.964;2023-01-08T12:16:33;98689.56;;;5.83;88.77
57000;BME280;42891;50.006;21.964;2023-01-08T12:20:44;98686.72;;;5.86;88.93
57000;BME280;42891;50.006;21.964;2023-01-08T12:41:41;98648.38;;;6.20;88.17
57000;BME280;42891;50.006;21.964;2023-01-08T12:45:44;98641.00;;;6.25;87.63
57000;BME280;42891;50.006;21.964;2023-01-08T12:49:52;98642.91;;;6.35;87.73
57000;BME280;42891;50.006;21.964;2023-01-08T12:58:31;98639.22;;;6.48;88.23
57000;BME280;42891;50.006;21.964;2023-01-08T13:02:35;98624.56;;;6.57;88.08
57000;BME280;42891;50.006;21.964;2023-01-08T13:06:37;98623.75;;;6.57;87.31
57000;BME280;42891;50.006;21.964;2023-01-08T13:10:52;98629.78;;;6.69;86.07
57000;BME280;42891;50.006;21.964;2023-01-08T13:14:53;98615.72;;;6.70;85.65
57000;BME280;42891;50.006;21.964;2023-01-08T13:19:00;98605.59;;;6.65;84.66
57000;BME280;42891;50.006;21.964;2023-01-08T13:23:03;98600.94;;;6.69;84.23
57000;BME280;42891;50.006;21.964;2023-01-08T13:35:26;98610.34;;;6.82;82.26
57000;BME280;42891;50.006;21.964;2023-01-08T13:39:33;98618.09;;;6.84;82.19
57000;BME280;42891;50.006;21.964;2023-01-08T13:43:38;98611.28;;;6.81;81.53
57000;BME280;42891;50.006;21.964;2023-01-08T13:47:42;98619.75;;;6.85;81.63
57000;BME280;42891;50.006;21.964;2023-01-08T13:51:44;98611.53;;;6.78;81.13
57000;BME280;42891;50.006;21.964;2023-01-08T13:59:57;98610.94;;;6.86;81.20
57000;BME280;42891;50.006;21.964;2023-01-08T14:03:58;98612.63;;;6.87;80.87
57000;BME280;42891;50.006;21.964;2023-01-08T14:07:59;98620.13;;;6.92;81.35
57000;BME280;42891;50.006;21.964;2023-01-08T14:11:59;98614.25;;;6.88;81.20
57000;BME280;42891;50.006;21.964;2023-01-08T14:16:03;98616.31;;;6.85;81.68
57000;BME280;42891;50.006;21.964;2023-01-08T14:20:09;98617.75;;;6.89;81.60
57000;BME280;42891;50.006;21.964;2023-01-08T14:24:14;98620.94;;;6.92;81.47
57000;BME280;42891;50.006;21.964;2023-01-08T14:28:17;98606.25;;;6.90;81.99
57000;BME280;42891;50.006;21.964;2023-01-08T14:32:23;98606.00;;;7.04;81.82
57000;BME280;42891;50.006;21.964;2023-01-08T14:36:25;98597.53;;;7.00;81.84
57000;BME280;42891;50.006;21.964;2023-01-08T14:40:31;98591.94;;;7.05;82.11
57000;BME280;42891;50.006;21.964;2023-01-08T14:44:32;98598.97;;;7.05;82.03
57000;BME280;42891;50.006;21.964;2023-01-08T14:48:41;98604.69;;;7.10;83.28
57000;BME280;42891;50.006;21.964;2023-01-08T14:52:43;98593.47;;;7.08;82.61
57000;BME280;42891;50.006;21.964;2023-01-08T14:56:48;98596.94;;;7.08;82.63
57000;BME280;42891;50.006;21.964;2023-01-08T15:00:53;98594.75;;;7.13;82.60
57000;BME280;42891;50.006;21.964;2023-01-08T15:05:11;98596.59;;;7.02;83.09
57000;BME280;42891;50.006;21.964;2023-01-08T15:09:27;98605.16;;;7.04;82.90
57000;BME280;42891;50.006;21.964;2023-01-08T15:13:33;98617.72;;;7.00;83.29
57000;BME280;42891;50.006;21.964;2023-01-08T15:17:33;98614.25;;;7.11;83.89
57000;BME280;42891;50.006;21.964;2023-01-08T15:21:34;98618.84;;;7.19;83.70
57000;BME280;42891;50.006;21.964;2023-01-08T15:25:35;98605.97;;;7.15;83.54
57000;BME280;42891;50.006;21.964;2023-01-08T15:29:46;98614.81;;;7.14;83.10
57000;BME280;42891;50.006;21.964;2023-01-08T15:33:47;98607.09;;;7.02;83.84
57000;BME280;42891;50.006;21.964;2023-01-08T15:37:47;98616.81;;;7.22;83.61
57000;BME280;42891;50.006;21.964;2023-01-08T15:41:47;98611.84;;;7.19;83.85
57000;BME280;42891;50.006;21.964;2023-01-08T15:46:09;98604.56;;;7.11;83.83
57000;BME280;42891;50.006;21.964;2023-01-08T15:50:10;98616.09;;;7.20;83.92
57000;BME280;42891;50.006;21.964;2023-01-08T15:54:12;98603.09;;;7.19;84.08
57000;BME280;42891;50.006;21.964;2023-01-08T15:58:14;98606.94;;;7.14;84.26
57000;BME280;42891;50.006;21.964;2023-01-08T16:02:14;98592.84;;;7.15;84.01
57000;BME280;42891;50.006;21.964;2023-01-08T16:06:15;98591.69;;;7.08;84.52
57000;BME280;42891;50.006;21.964;2023-01-08T16:10:16;98610.50;;;7.25;84.26
57000;BME280;42891;50.006;21.964;2023-01-08T16:14:16;98605.13;;;7.26;84.04
57000;BME280;42891;50.006;21.964;2023-01-08T16:18:17;98593.75;;;7.26;84.20
57000;BME280;42891;50.006;21.964;2023-01-08T16:22:17;98586.59;;;7.28;83.38
57000;BME280;42891;50.006;21.964;2023-01-08T16:26:17;98595.06;;;7.31;83.50
57000;BME280;42891;50.006;21.964;2023-01-08T16:30:18;98581.34;;;7.28;83.17
57000;BME280;42891;50.006;21.964;2023-01-08T16:34:18;98573.53;;;7.16;83.21
57000;BME280;42891;50.006;21.964;2023-01-08T16:38:18;98576.59;;;7.22;83.38
57000;BME280;42891;50.006;21.964;2023-01-08T16:42:18;98570.28;;;7.13;83.09
57000;BME280;42891;50.006;21.964;2023-01-08T16:46:19;98571.03;;;7.04;83.39
57000;BME280;42891;50.006;21.964;2023-01-08T16:50:19;98568.44;;;6.92;83.70
57000;BME280;42891;50.006;21.964;2023-01-08T16:54:19;98563.09;;;6.82;84.00
57000;BME280;42891;50.006;21.964;2023-01-08T16:58:20;98567.78;;;6.79;84.10
57000;BME280;42891;50.006;21.964;2023-01-08T17:02:20;98562.06;;;6.74;84.44
57000;BME280;42891;50.006;21.964;2023-01-08T17:06:21;98558.38;;;6.65;85.07
57000;BME280;42891;50.006;21.964;2023-01-08T17:10:23;98556.34;;;6.69;84.44
57000;BME280;42891;50.006;21.964;2023-01-08T17:14:23;98557.66;;;6.63;85.06
57000;BME280;42891;50.006;21.964;2023-01-08T17:18:24;98552.66;;;6.60;84.67
57000;BME280;42891;50.006;21.964;2023-01-08T17:22:24;98548.25;;;6.60;85.02
57000;BME280;42891;50.006;21.964;2023-01-08T17:26:24;98542.66;;;6.65;84.78
57000;BME280;42891;50.006;21.964;2023-01-08T17:30:24;98552.06;;;6.56;85.42
57000;BME280;42891;50.006;21.964;2023-01-08T17:34:25;98542.03;;;6.61;85.05
57000;BME280;42891;50.006;21.964;2023-01-08T17:38:25;98533.13;;;6.53;85.28
57000;BME280;42891;50.006;21.964;2023-01-08T17:42:27;98540.03;;;6.65;84.67
57000;BME280;42891;50.006;21.964;2023-01-08T17:46:27;98524.50;;;6.62;84.69
57000;BME280;42891;50.006;21.964;2023-01-08T17:50:28;98525.91;;;6.66;84.96
57000;BME280;42891;50.006;21.964;2023-01-08T17:54:28;98513.19;;;6.61;84.96
57000;BME280;42891;50.006;21.964;2023-01-08T17:58:29;98513.78;;;6.65;85.01
57000;BME280;42891;50.006;21.964;2023-01-08T18:02:29;98505.06;;;6.64;84.28
57000;BME280;42891;50.006;21.964;2023-01-08T18:06:29;98487.66;;;6.63;84.49
57000;BME280;42891;50.006;21.964;2023-01-08T18:10:30;98488.16;;;6.57;84.47
57000;BME280;42891;50.006;21.964;2023-01-08T18:14:30;98480.63;;;6.64;84.42
57000;BME280;42891;50.006;21.964;2023-01-08T18:18:31;98499.91;;;6.74;84.25
57000;BME280;42891;50.006;21.964;2023-01-08T18:22:31;98493.00;;;6.73;83.85
57000;BME280;42891;50.006;21.964;2023-01-08T18:26:31;98498.03;;;6.65;83.76
57000;BME280;42891;50.006;21.964;2023-01-08T18:30:32;98501.31;;;6.78;83.69
57000;BME280;42891;50.006;21.964;2023-01-08T18:34:32;98493.00;;;6.73;83.39
57000;BME280;42891;50.006;21.964;2023-01-08T18:38:32;98511.56;;;6.81;83.78
57000;BME280;42891;50.006;21.964;2023-01-08T18:42:33;98480.38;;;6.67;82.67
57000;BME280;42891;50.006;21.964;2023-01-08T18:46:33;98498.25;;;6.73;83.29
57000;BME280;42891;50.006;21.964;2023-01-08T18:50:37;98493.50;;;6.67;82.94
57000;BME280;42891;50.006;21.964;2023-01-08T18:54:37;98508.75;;;6.73;83.56
57000;BME280;42891;50.006;21.964;2023-01-08T18:58:37;98501.44;;;6.77;83.60
57000;BME280;42891;50.006;21.964;2023-01-08T19:02:38;98500.66;;;6.65;83.76
57000;BME280;42891;50.006;21.964;2023-01-08T19:06:38;98519.34;;;6.83;84.09
57000;BME280;42891;50.006;21.964;2023-01-08T19:10:39;98518.13;;;6.87;84.03
57000;BME280;42891;50.006;21.964;2023-01-08T19:14:39;98512.50;;;6.92;83.30
57000;BME280;42891;50.006;21.964;2023-01-08T19:18:39;98525.72;;;7.02;83.62
57000;BME280;42891;50.006;21.964;2023-01-08T19:22:40;98527.81;;;7.08;83.59
57000;BME280;42891;50.006;21.964;2023-01-08T19:26:40;98523.69;;;7.05;82.87
57000;BME280;42891;50.006;21.964;2023-01-08T19:30:40;98501.50;;;6.98;84.12
57000;BME280;42891;50.006;21.964;2023-01-08T19:34:42;98506.25;;;7.04;84.38
57000;BME280;42891;50.006;21.964;2023-01-08T19:38:43;98525.31;;;7.06;83.31
57000;BME280;42891;50.006;21.964;2023-01-08T19:42:43;98519.38;;;7.04;85.41
57000;BME280;42891;50.006;21.964;2023-01-08T19:47:02;98509.84;;;7.03;83.35
57000;BME280;42891;50.006;21.964;2023-01-08T19:51:07;98511.13;;;7.09;83.34
57000;BME280;42891;50.006;21.964;2023-01-08T19:55:08;98507.28;;;7.13;83.75
57000;BME280;42891;50.006;21.964;2023-01-08T19:59:09;98502.03;;;7.13;83.45
57000;BME280;42891;50.006;21.964;2023-01-08T20:03:10;98508.88;;;7.04;83.80
57000;BME280;42891;50.006;21.964;2023-01-08T20:07:11;98490.19;;;6.97;84.26
57000;BME280;42891;50.006;21.964;2023-01-08T20:11:14;98499.72;;;6.98;84.88
57000;BME280;42891;50.006;21.964;2023-01-08T20:15:15;98491.34;;;7.05;84.93
57000;BME280;42891;50.006;21.964;2023-01-08T20:19:17;98471.94;;;6.96;84.94
57000;BME280;42891;50.006;21.964;2023-01-08T20:23:17;98482.75;;;7.03;84.88
57000;BME280;42891;50.006;21.964;2023-01-08T20:27:18;98480.22;;;7.12;85.38
57000;BME280;42891;50.006;21.964;2023-01-08T20:31:21;98473.63;;;7.18;85.03
57000;BME280;42891;50.006;21.964;2023-01-08T20:35:22;98466.56;;;7.19;84.44
57000;BME280;42891;50.006;21.964;2023-01-08T20:39:22;98475.72;;;7.24;84.82
57000;BME280;42891;50.006;21.964;2023-01-08T20:43:23;98478.53;;;7.32;84.54
57000;BME280;42891;50.006;21.964;2023-01-08T20:47:23;98462.53;;;7.36;84.36
57000;BME280;42891;50.006;21.964;2023-01-08T20:51:23;98452.72;;;7.38;84.25
57000;BME280;42891;50.006;21.964;2023-01-08T20:55:24;98441.00;;;7.42;83.63
57000;BME280;42891;50.006;21.964;2023-01-08T20:59:25;98426.00;;;7.32;84.06
57000;BME280;42891;50.006;21.964;2023-01-08T21:03:26;98446.13;;;7.43;84.59
57000;BME280;42891;50.006;21.964;2023-01-08T21:07:26;98447.97;;;7.31;84.24
57000;BME280;42891;50.006;21.964;2023-01-08T21:11:29;98433.22;;;7.30;84.77
57000;BME280;42891;50.006;21.964;2023-01-08T21:15:29;98435.69;;;7.32;85.18
57000;BME280;42891;50.006;21.964;2023-01-08T21:19:31;98415.50;;;7.32;84.87
57000;BME280;42891;50.006;21.964;2023-01-08T21:23:33;98407.44;;;7.24;85.21
57000;BME280;42891;50.006;21.964;2023-01-08T21:27:33;98406.22;;;7.28;85.77
57000;BME280;42891;50.006;21.964;2023-01-08T21:31:34;98418.00;;;7.34;85.41
57000;BME280;42891;50.006;21.964;2023-01-08T21:35:35;98394.22;;;7.36;86.02
57000;BME280;42891;50.006;21.964;2023-01-08T21:39:35;98374.78;;;7.17;85.49
57000;BME280;42891;50.006;21.964;2023-01-08T21:43:35;98383.69;;;7.26;85.29
57000;BME280;42891;50.006;21.964;2023-01-08T21:47:55;98388.03;;;7.37;85.51
57000;BME280;42891;50.006;21.964;2023-01-08T21:51:56;98400.84;;;7.30;85.27
57000;BME280;42891;50.006;21.964;2023-01-08T21:56:15;98390.53;;;7.38;85.46
57000;BME280;42891;50.006;21.964;2023-01-08T22:00:15;98360.63;;;7.29;84.94
57000;BME280;42891;50.006;21.964;2023-01-08T22:04:16;98372.53;;;7.33;84.62
57000;BME280;42891;50.006;21.964;2023-01-08T22:08:16;98377.38;;;7.38;85.07
57000;BME280;42891;50.006;21.964;2023-01-08T22:12:18;98353.19;;;7.34;84.90
57000;BME280;42891;50.006;21.964;2023-01-08T22:16:19;98358.88;;;7.40;84.91
57000;BME280;42891;50.006;21.964;2023-01-08T22:20:19;98338.72;;;7.40;84.59
57000;BME280;42891;50.006;21.964;2023-01-08T22:24:20;98348.50;;;7.38;84.31
57000;BME280;42891;50.006;21.964;2023-01-08T22:28:20;98350.75;;;7.43;84.50
57000;BME280;42891;50.006;21.964;2023-01-08T22:32:20;98350.34;;;7.47;84.40
57000;BME280;42891;50.006;21.964;2023-01-08T22:36:20;98344.81;;;7.50;83.89